📊 Raw Sensor Data

Showing records 45801 to 45825 of 85,059 total

ID Distance (ft) Battery V Battery A Int Temp (°F) Int Humid (%) Ext Temp (°F) Solar V RSSI SNR Time Stamp
39271 -- 4.01 0 63 40 64 5.10 -74 8 04/30/2025 08:45 AM
39270 -- 4.14 0 60 40 62 5.10 -74 9 04/30/2025 08:30 AM
39269 15.4 4.01 0 58 40 58 5.10 -72 8 04/30/2025 08:15 AM
39268 15.5 4.09 0 57 41 56 5.10 -72 8 04/30/2025 08:00 AM
39267 15.4 4.12 61 56 40 56 4.50 -74 8 04/30/2025 07:45 AM
39266 -- 4.06 47 55 40 55 4.50 -74 7 04/30/2025 07:30 AM
39265 -- 4.02 6 54 40 55 4.50 -73 9 04/30/2025 07:16 AM
39264 -- 4.02 -9 54 41 54 4.50 -74 7 04/30/2025 07:00 AM
39263 -- 3.96 0 53 41 54 4.50 -74 8 04/30/2025 06:45 AM
39262 -- 3.93 -5 52 42 53 4.50 -75 8 04/30/2025 06:30 AM
39261 -- 3.98 -10 52 41 53 4.40 -74 8 04/30/2025 06:16 AM
39260 -- 3.94 -5 52 41 53 0.80 -73 8 04/30/2025 06:00 AM
39259 -- 3.94 -16 52 42 54 0.00 -74 8 04/30/2025 05:45 AM
39258 15.4 3.94 -5 52 41 53 0.10 -74 8 04/30/2025 05:30 AM
39257 -- 3.94 -5 52 41 54 0.00 -75 8 04/30/2025 05:16 AM
39256 -- 3.94 -5 53 41 53 0.00 -73 7 04/30/2025 05:00 AM
39255 15.4 3.94 -5 53 41 54 0.00 -74 8 04/30/2025 04:45 AM
39254 -- 3.94 -5 52 41 54 0.10 -74 8 04/30/2025 04:30 AM
39253 -- 4.00 -5 52 41 54 0.00 -75 8 04/30/2025 04:15 AM
39252 -- 3.94 -5 51 41 53 0.10 -73 8 04/30/2025 04:00 AM
39251 -- 3.94 -5 51 41 53 0.10 -73 8 04/30/2025 03:45 AM
39250 -- 3.94 -5 50 42 52 0.00 -74 8 04/30/2025 03:30 AM
39249 -- 3.95 -5 50 42 51 0.00 -74 8 04/30/2025 03:15 AM
39248 -- 4.00 -5 51 42 53 0.00 -75 8 04/30/2025 03:01 AM
39247 -- 3.95 -5 50 42 52 0.00 -75 8 04/30/2025 02:45 AM